Time;durP1;ratioP1;P1;durP2;ratioP2;P2;SDS_P1;SDS_P2;PMS_P1;PMS_P2;Temp;Humidity;BMP_temperature;BMP_pressure;BME280_temperature;BME280_humidity;BME280_pressure;Samples;Min_cycle;Max_cycle;Signal;HPM_P1;HPM_P2
2022/09/15 00:00:36;;;;;;;;;1.33;1.00;;;;;24.18;57.25;100179.94;2098531;28;47740;-60
2022/09/15 00:01:37;;;;;;;;;1.00;1.00;;;;;24.17;56.92;100175.50;2090542;28;47628;-61
2022/09/15 00:02:38;;;;;;;;;0.00;0.00;;;;;24.15;57.11;100189.19;2090193;28;47542;-61
2022/09/15 00:03:39;;;;;;;;;1.67;0.67;;;;;24.15;57.10;100177.50;2088437;28;48060;-63
2022/09/15 00:04:39;;;;;;;;;0.75;0.75;;;;;24.13;57.23;100179.47;2092297;28;47390;-61
2022/09/15 00:05:40;;;;;;;;;0.67;0.67;;;;;24.12;57.12;100180.44;2102548;28;47728;-61
2022/09/15 00:06:40;;;;;;;;;0.00;0.00;;;;;24.10;57.04;100180.59;2102987;28;47265;-63
2022/09/15 00:07:41;;;;;;;;;0.33;0.00;;;;;24.08;57.48;100186.16;2104105;28;47588;-61
2022/09/15 00:08:42;;;;;;;;;1.00;0.00;;;;;24.08;57.27;100182.59;2102764;28;47119;-61
2022/09/15 00:09:42;;;;;;;;;0.00;0.00;;;;;24.06;57.16;100180.00;2103705;28;47755;-62
2022/09/15 00:10:54;;;;;;;;;0.00;0.00;;;;;24.04;57.29;100183.84;2103673;28;45181;-62
2022/09/15 00:11:55;;;;;;;;;0.00;0.00;;;;;24.04;57.37;100187.41;2102631;28;47690;-61
2022/09/15 00:12:55;;;;;;;;;0.00;0.00;;;;;24.03;57.26;100176.72;2099865;27;46374;-62
2022/09/15 00:13:58;;;;;;;;;0.00;0.00;;;;;24.02;57.20;100183.97;2101396;28;47614;-63
2022/09/15 00:14:59;;;;;;;;;0.75;0.75;;;;;24.02;57.27;100181.28;2100916;27;47682;-60
2022/09/15 00:15:59;;;;;;;;;1.00;1.00;;;;;24.03;57.35;100179.41;2097105;27;46530;-62
2022/09/15 00:16:59;;;;;;;;;0.67;0.67;;;;;24.02;57.13;100178.56;2100927;28;47569;-61
2022/09/15 00:18:00;;;;;;;;;0.00;0.00;;;;;24.02;57.34;100175.00;2102818;28;48197;-61
2022/09/15 00:19:01;;;;;;;;;1.00;1.00;;;;;24.01;57.05;100176.84;2102326;28;46517;-62
2022/09/15 00:20:04;;;;;;;;;0.00;0.00;;;;;24.00;57.34;100180.50;2097535;28;47034;-61
2022/09/15 00:21:11;;;;;;;;;0.00;0.00;;;;;23.98;57.38;100173.50;2075158;28;47569;-61
2022/09/15 00:22:11;;;;;;;;;0.00;0.00;;;;;23.96;57.29;100179.06;2083495;28;47895;-61
2022/09/15 00:23:14;;;;;;;;;1.67;1.67;;;;;23.94;56.81;100177.50;2101521;28;47200;-61
2022/09/15 00:24:14;;;;;;;;;1.00;1.00;;;;;23.92;57.22;100182.19;2098028;27;47581;-61
2022/09/15 00:25:14;;;;;;;;;1.00;1.00;;;;;23.91;57.42;100183.19;2102933;28;46838;-61
2022/09/15 00:26:19;;;;;;;;;0.33;0.33;;;;;23.91;57.43;100178.63;2097464;28;47297;-62
2022/09/15 00:27:19;;;;;;;;;2.00;2.00;;;;;23.91;57.37;100184.03;2102940;28;47783;-60
2022/09/15 00:28:21;;;;;;;;;1.00;1.00;;;;;23.90;57.41;100189.59;2099792;27;47671;-63
2022/09/15 00:29:22;;;;;;;;;1.25;1.25;;;;;23.89;57.43;100183.31;2102546;28;47942;-61
2022/09/15 00:30:22;;;;;;;;;2.67;1.67;;;;;23.88;57.47;100183.41;2093596;28;47095;-62
2022/09/15 00:31:24;;;;;;;;;1.00;1.00;;;;;23.87;57.40;100185.28;2091634;28;47918;-61
2022/09/15 00:32:25;;;;;;;;;1.25;1.25;;;;;23.86;57.17;100182.69;2095989;28;46697;-62
2022/09/15 00:33:26;;;;;;;;;0.50;0.00;;;;;23.85;57.87;100183.69;2097746;28;47507;-61
2022/09/15 00:34:26;;;;;;;;;1.00;1.00;;;;;23.85;57.12;100183.69;2097838;28;47067;-61
2022/09/15 00:35:26;;;;;;;;;2.00;2.00;;;;;23.84;57.46;100182.84;2100882;28;47847;-60
2022/09/15 00:36:28;;;;;;;;;1.00;1.00;;;;;23.83;57.45;100186.53;2101237;27;47468;-61
2022/09/15 00:37:28;;;;;;;;;1.75;1.75;;;;;23.83;57.14;100181.13;2103913;28;47535;-61
2022/09/15 00:38:29;;;;;;;;;2.00;2.00;;;;;23.83;57.36;100181.13;2097456;28;47735;-61
2022/09/15 00:39:29;;;;;;;;;1.75;1.75;;;;;23.85;57.63;100184.56;2100178;28;47615;-61
2022/09/15 00:40:30;;;;;;;;;2.00;2.00;;;;;23.87;57.35;100187.97;2097222;27;47321;-61
2022/09/15 00:41:30;;;;;;;;;2.00;2.00;;;;;23.86;57.32;100174.56;2101619;28;47366;-61
2022/09/15 00:42:31;;;;;;;;;3.33;1.67;;;;;23.87;57.52;100179.84;2096705;27;47376;-60
2022/09/15 00:43:52;;;;;;;;;2.00;2.00;;;;;23.88;57.75;100186.13;2103145;28;47944;-62
2022/09/15 00:44:59;;;;;;;;;2.00;2.00;;;;;23.85;57.87;100187.25;2101079;27;47320;-61
2022/09/15 00:45:59;;;;;;;;;2.50;2.50;;;;;23.84;57.54;100193.66;2103608;28;47531;-61
2022/09/15 00:47:02;;;;;;;;;4.00;4.00;;;;;23.83;57.47;100188.38;2091715;28;47741;-62
2022/09/15 00:48:04;;;;;;;;;3.00;3.00;;;;;23.79;57.60;100190.50;2092845;28;48053;-61
2022/09/15 00:49:15;;;;;;;;;5.50;5.00;;;;;23.76;57.74;100196.19;2091883;28;47288;-61
2022/09/15 00:50:19;;;;;;;;;1.00;1.00;;;;;23.72;57.58;100195.56;2094627;28;47450;-61
2022/09/15 00:51:25;;;;;;;;;4.25;3.75;;;;;23.69;57.59;100189.56;2102219;28;47470;-62
2022/09/15 00:52:36;;;;;;;;;7.75;7.00;;;;;23.66;57.89;100195.25;2099350;27;48121;-62
2022/09/15 00:53:36;;;;;;;;;8.00;7.75;;;;;23.63;57.72;100196.38;2103798;28;47846;-62
2022/09/15 00:54:48;;;;;;;;;4.67;4.67;;;;;23.62;58.03;100196.47;2094901;28;47247;-62
2022/09/15 00:55:49;;;;;;;;;4.75;4.75;;;;;23.59;58.13;100205.72;2094243;28;47912;-61
2022/09/15 00:56:53;;;;;;;;;7.00;6.75;;;;;23.58;58.03;100204.00;2103166;27;48052;-61
2022/09/15 00:58:01;;;;;;;;;6.75;5.25;;;;;23.58;58.11;100206.72;2100437;28;47634;-62
2022/09/15 00:59:05;;;;;;;;;7.75;6.00;;;;;23.57;57.95;100210.38;2101393;28;45796;-61
2022/09/15 01:00:09;;;;;;;;;6.00;5.00;;;;;23.58;58.08;100208.56;2097486;28;47679;-61
2022/09/15 01:01:11;;;;;;;;;8.40;8.40;;;;;23.55;58.17;100204.25;2078275;28;47305;-62
2022/09/15 01:02:21;;;;;;;;;8.50;8.50;;;;;23.53;58.02;100208.94;2084125;28;47578;-63
2022/09/15 01:03:25;;;;;;;;;7.50;7.50;;;;;23.51;58.16;100215.47;2103069;28;47596;-61
2022/09/15 01:04:26;;;;;;;;;9.40;7.80;;;;;23.48;58.10;100208.44;2104091;27;46399;-61
2022/09/15 01:05:41;;;;;;;;;6.50;6.50;;;;;23.44;58.08;100217.81;2104074;27;48040;-60
2022/09/15 01:06:50;;;;;;;;;7.25;7.00;;;;;23.43;58.50;100216.09;2102561;27;47623;-62
2022/09/15 01:07:56;;;;;;;;;8.25;7.00;;;;;23.40;58.34;100211.81;2105271;28;47467;-60
2022/09/15 01:09:04;;;;;;;;;7.75;7.75;;;;;23.38;58.28;100224.63;2103410;28;47527;-62
2022/09/15 01:10:11;;;;;;;;;9.75;7.00;;;;;23.35;58.29;100218.56;2088036;28;47527;-63
2022/09/15 01:11:15;;;;;;;;;8.50;8.50;;;;;23.34;58.19;100224.97;2092592;28;47793;-62
2022/09/15 01:12:16;;;;;;;;;6.25;6.25;;;;;23.31;58.72;100223.38;2093005;28;47087;-61
2022/09/15 01:13:17;;;;;;;;;7.67;7.67;;;;;23.30;58.80;100227.09;2092855;28;47253;-63
2022/09/15 01:14:18;;;;;;;;;8.50;7.75;;;;;23.29;58.95;100222.66;2103460;28;47641;-61
2022/09/15 01:15:21;;;;;;;;;5.00;5.00;;;;;23.30;58.46;100221.66;2103412;28;47563;-60
2022/09/15 01:16:40;;;;;;;;;5.75;5.75;;;;;23.29;58.71;100228.06;2100607;28;47562;-59
2022/09/15 01:18:04;;;;;;;;;6.00;4.50;;;;;23.27;58.83;100226.47;2102124;28;47659;-62
2022/09/15 01:19:25;;;;;;;;;3.25;3.25;;;;;23.25;58.68;100228.44;2086085;28;47566;-62
2022/09/15 01:20:29;;;;;;;;;7.00;6.00;;;;;23.27;58.59;100223.78;2082913;28;48186;-61
2022/09/15 01:21:35;;;;;;;;;6.50;4.75;;;;;23.26;58.67;100230.19;2084847;28;47592;-61
2022/09/15 01:22:53;;;;;;;;;7.00;6.25;;;;;23.25;58.67;100226.63;2085945;28;47600;-62
2022/09/15 01:24:12;;;;;;;;;5.00;5.00;;;;;23.24;58.55;100224.88;2086478;28;47878;-61
2022/09/15 01:25:16;;;;;;;;;6.00;6.00;;;;;23.24;58.70;100226.72;2086904;28;47558;-61
2022/09/15 01:26:45;;;;;;;;;7.00;6.50;;;;;23.23;58.77;100235.81;2084487;28;47813;-61
2022/09/15 01:28:05;;;;;;;;;7.60;7.60;;;;;23.20;58.86;100223.41;2084099;28;47133;-61
2022/09/15 01:29:34;;;;;;;;;6.50;6.50;;;;;23.19;58.89;100227.97;2085677;28;47613;-62
2022/09/15 01:30:39;;;;;;;;;4.75;4.75;;;;;23.16;58.76;100225.50;2078095;28;48288;-62
2022/09/15 01:33:25;;;;;;;;;8.50;7.00;;;;;23.16;59.03;100225.50;2080272;28;48357;-63
2022/09/15 01:34:32;;;;;;;;;6.50;6.50;;;;;23.17;58.78;100224.53;2087692;28;47792;-61
2022/09/15 01:35:51;;;;;;;;;6.00;4.75;;;;;23.16;58.90;100227.34;2078200;28;47358;-62
2022/09/15 01:37:05;;;;;;;;;6.75;6.75;;;;;23.11;58.72;100218.72;2068994;28;48018;-62
2022/09/15 01:38:23;;;;;;;;;6.25;5.50;;;;;23.10;58.80;100223.28;2079218;28;47490;-62
2022/09/15 01:39:26;;;;;;;;;7.75;6.75;;;;;;;;2082980;28;47721;-60
2022/09/15 01:40:31;;;;;;;;;4.00;4.00;;;;;23.06;59.06;100229.09;2076864;28;47472;-62
2022/09/15 01:41:54;;;;;;;;;5.25;5.25;;;;;23.04;58.78;100229.22;2078584;28;47869;-62
2022/09/15 01:42:56;;;;;;;;;5.50;4.25;;;;;23.03;59.01;100229.34;2081608;28;47720;-61
2022/09/15 01:44:01;;;;;;;;;6.00;5.00;;;;;23.03;58.85;100237.47;2084049;28;47871;-60
2022/09/15 01:45:10;;;;;;;;;7.00;6.00;;;;;23.04;59.12;100233.78;2084889;28;47738;-61
2022/09/15 01:46:15;;;;;;;;;5.00;5.00;;;;;23.03;58.94;100230.19;2085257;28;48174;-60
2022/09/15 01:47:18;;;;;;;;;5.00;5.00;;;;;23.05;58.83;100232.78;2077509;28;47435;-61
2022/09/15 01:48:23;;;;;;;;;4.25;4.25;;;;;23.05;58.96;100230.06;2078437;28;48158;-61
2022/09/15 01:49:29;;;;;;;;;5.00;5.00;;;;;23.04;58.86;100229.22;2087134;28;47308;-61
2022/09/15 01:50:36;;;;;;;;;5.75;5.75;;;;;23.05;58.91;100230.94;2086332;28;46630;-62
2022/09/15 01:51:39;;;;;;;;;6.75;5.75;;;;;23.06;59.07;100234.50;2083165;28;47587;-61
2022/09/15 01:52:47;;;;;;;;;6.00;6.00;;;;;23.05;59.01;100235.50;2081602;28;47566;-60
2022/09/15 01:53:50;;;;;;;;;9.50;6.75;;;;;23.04;58.87;100231.94;2083738;28;47813;-61
2022/09/15 01:54:55;;;;;;;;;7.75;6.00;;;;;23.05;59.01;100235.50;2085832;28;47682;-61
2022/09/15 01:56:01;;;;;;;;;4.75;4.75;;;;;23.04;59.09;100236.47;2087238;28;46822;-61
2022/09/15 01:57:02;;;;;;;;;6.00;5.00;;;;;23.03;58.66;100229.34;2088810;28;47288;-61
2022/09/15 01:58:03;;;;;;;;;6.75;5.25;;;;;23.03;58.94;100232.06;2095799;28;47350;-59
2022/09/15 01:59:04;;;;;;;;;4.25;3.75;;;;;23.03;59.37;100235.63;2093439;28;47497;-62
2022/09/15 02:00:05;;;;;;;;;4.33;4.33;;;;;23.04;59.12;100234.63;2096294;28;48192;-64
2022/09/15 02:01:14;;;;;;;;;6.67;6.67;;;;;23.04;58.94;100236.47;2101000;28;47386;-63
2022/09/15 02:02:21;;;;;;;;;4.00;4.00;;;;;23.06;58.60;100231.78;2095827;27;47905;-63
2022/09/15 02:03:34;;;;;;;;;6.25;4.00;;;;;23.05;58.60;100233.66;2100604;28;47954;-63
2022/09/15 02:04:40;;;;;;;;;4.50;4.00;;;;;23.06;58.70;100232.66;2101261;28;47825;-61
2022/09/15 02:06:09;;;;;;;;;4.25;4.25;;;;;23.05;58.53;100238.19;2095687;28;47558;-63
2022/09/15 02:07:19;;;;;;;;;3.00;2.25;;;;;23.04;58.57;100228.34;2040671;28;48006;-62
2022/09/15 02:08:33;;;;;;;;;3.25;3.25;;;;;23.04;58.77;100239.19;2047045;28;47915;-61
2022/09/15 02:09:43;;;;;;;;;2.25;2.25;;;;;23.03;58.77;100235.63;2061837;28;46924;-60
2022/09/15 02:11:11;;;;;;;;;2.00;2.00;;;;;23.04;58.79;100237.34;2060959;28;47650;-61
2022/09/15 02:12:41;;;;;;;;;2.50;2.50;;;;;23.04;58.67;100237.34;2057790;28;47901;-62
2022/09/15 02:13:47;;;;;;;;;4.00;4.00;;;;;23.05;58.56;100232.78;2057440;28;47611;-62
2022/09/15 02:15:02;;;;;;;;;3.50;3.25;;;;;23.06;58.45;100238.06;2061273;28;47621;-61
2022/09/15 02:16:03;;;;;;;;;2.75;2.75;;;;;23.05;58.53;100238.19;2060263;28;47807;-61
2022/09/15 02:17:04;;;;;;;;;4.25;4.25;;;;;23.04;58.82;100242.75;2060740;28;47983;-61
2022/09/15 02:18:07;;;;;;;;;4.00;4.00;;;;;23.04;58.79;100234.63;2061861;28;47272;-61
2022/09/15 02:19:13;;;;;;;;;3.25;3.25;;;;;23.04;58.34;100237.34;2052747;28;45968;-61
2022/09/15 02:20:19;;;;;;;;;6.00;6.00;;;;;23.03;58.33;100241.03;2054459;28;47773;-60
2022/09/15 02:21:32;;;;;;;;;6.50;6.00;;;;;23.03;58.41;100240.16;2061541;28;47920;-61
2022/09/15 02:22:36;;;;;;;;;7.00;7.00;;;;;23.04;58.10;100237.34;2058477;28;47825;-61
2022/09/15 02:23:42;;;;;;;;;4.25;4.00;;;;;23.03;58.17;100235.63;2052984;28;48197;-61
2022/09/15 02:24:48;;;;;;;;;9.75;7.75;;;;;23.03;58.10;100235.63;2037471;28;47489;-62
2022/09/15 02:25:54;;;;;;;;;6.75;6.75;;;;;23.03;57.85;100234.75;2040515;28;47685;-62
2022/09/15 02:26:58;;;;;;;;;9.75;8.50;;;;;23.04;57.91;100244.59;2036944;28;47333;-60
2022/09/15 02:28:04;;;;;;;;;7.60;7.60;;;;;23.02;58.08;100236.59;2040124;28;49631;-61
2022/09/15 02:29:08;;;;;;;;;7.00;7.00;;;;;23.02;57.82;100238.44;2060427;28;47323;-61
2022/09/15 02:30:13;;;;;;;;;11.40;10.00;;;;;22.99;57.79;100230.56;2051531;28;47517;-61
2022/09/15 02:31:16;;;;;;;;;10.75;8.00;;;;;22.96;57.89;100237.09;2053873;28;47778;-60
2022/09/15 02:32:22;;;;;;;;;10.40;10.40;;;;;22.96;57.63;100238.94;2061816;28;47282;-61
2022/09/15 02:33:28;;;;;;;;;11.60;10.60;;;;;22.94;57.86;100235.50;2060425;28;46672;-62
2022/09/15 02:34:36;;;;;;;;;9.20;9.20;;;;;22.93;57.74;100242.75;2056743;28;47857;-61
2022/09/15 02:35:39;;;;;;;;;14.00;13.00;;;;;22.91;57.71;100236.59;2057266;28;47451;-61
2022/09/15 02:36:40;;;;;;;;;12.60;12.00;;;;;22.88;57.59;100237.72;2061268;28;48091;-62
2022/09/15 02:37:40;;;;;;;;;13.00;13.00;;;;;22.84;57.67;100235.38;2060595;28;47640;-61
2022/09/15 02:38:48;;;;;;;;;9.25;8.00;;;;;22.82;57.63;100237.31;2053375;28;47363;-61
2022/09/15 02:39:57;;;;;;;;;14.00;12.00;;;;;22.80;57.88;100239.28;2047618;28;47073;-61
2022/09/15 02:40:58;;;;;;;;;13.00;12.20;;;;;22.79;57.97;100237.56;2057211;28;47703;-59
2022/09/15 02:42:01;;;;;;;;;10.00;10.00;;;;;22.78;57.81;100234.00;2056423;28;47018;-60
2022/09/15 02:43:04;;;;;;;;;13.75;12.00;;;;;22.78;57.80;100242.13;2051709;28;47320;-62
2022/09/15 02:44:04;;;;;;;;;11.60;11.00;;;;;22.76;57.86;100235.97;2056872;28;47721;-61
2022/09/15 02:45:05;;;;;;;;;10.75;10.25;;;;;22.75;57.79;100231.53;2096520;28;47571;-61
2022/09/15 02:46:06;;;;;;;;;14.20;13.80;;;;;22.74;57.75;100234.34;2104808;28;47370;-61
2022/09/15 02:47:06;;;;;;;;;15.75;15.50;;;;;22.73;58.13;100243.44;2102008;28;47731;-62
2022/09/15 02:48:10;;;;;;;;;13.50;13.50;;;;;22.71;57.49;100245.41;2103189;28;47604;-61
2022/09/15 02:49:10;;;;;;;;;12.00;12.00;;;;;22.70;58.12;100241.84;2102603;28;47725;-61
2022/09/15 02:50:11;;;;;;;;;14.00;13.25;;;;;22.71;57.95;100251.69;2105066;28;47666;-62
2022/09/15 02:51:12;;;;;;;;;15.00;13.75;;;;;22.70;58.03;100247.25;2101247;28;47328;-60
2022/09/15 02:52:12;;;;;;;;;14.75;14.00;;;;;22.70;58.06;100249.97;2104379;28;47819;-61
2022/09/15 02:53:13;;;;;;;;;17.75;16.75;;;;;22.67;58.07;100244.81;2104005;28;47416;-61
2022/09/15 02:54:13;;;;;;;;;18.25;16.50;;;;;22.67;57.83;100244.81;2103975;27;48058;-61
2022/09/15 02:55:15;;;;;;;;;14.00;13.75;;;;;22.65;57.86;100248.63;2101808;28;47426;-61
2022/09/15 02:56:16;;;;;;;;;15.40;14.60;;;;;22.64;57.95;100247.75;2102476;27;46708;-62
2022/09/15 02:57:17;;;;;;;;;17.00;16.00;;;;;22.63;58.41;100242.47;2103520;27;48041;-60
2022/09/15 02:58:17;;;;;;;;;14.25;14.25;;;;;22.64;57.78;100249.59;2096196;28;47535;-61
2022/09/15 02:59:18;;;;;;;;;15.25;14.25;;;;;22.63;58.13;100251.47;2093805;28;48149;-62
2022/09/15 03:00:18;;;;;;;;;14.25;13.75;;;;;22.63;57.85;100248.75;2093842;28;47891;-62
2022/09/15 03:01:19;;;;;;;;;16.00;16.00;;;;;22.63;57.85;100251.47;2103072;28;48116;-62
2022/09/15 03:02:19;;;;;;;;;16.25;16.25;;;;;22.60;57.68;100248.97;2098957;28;48153;-62
2022/09/15 03:03:20;;;;;;;;;13.25;13.25;;;;;22.57;57.97;100246.50;2082985;28;47822;-62
2022/09/15 03:04:21;;;;;;;;;17.60;15.40;;;;;22.55;57.99;100241.22;2077429;28;47362;-62
2022/09/15 03:05:27;;;;;;;;;20.25;20.00;;;;;22.53;57.83;100243.19;2095465;28;47266;-61
2022/09/15 03:06:33;;;;;;;;;19.40;17.00;;;;;22.52;58.01;100241.47;2103180;28;47256;-60
2022/09/15 03:07:34;;;;;;;;;16.40;16.00;;;;;22.51;57.99;100236.19;2099789;28;48184;-63
2022/09/15 03:08:35;;;;;;;;;15.40;15.40;;;;;22.50;57.92;100243.44;2103556;27;46628;-62
2022/09/15 03:09:36;;;;;;;;;14.50;14.50;;;;;22.49;57.71;100236.31;2101851;28;48182;-62
2022/09/15 03:10:36;;;;;;;;;15.60;15.60;;;;;22.48;58.23;100245.38;2103622;27;47802;-61
2022/09/15 03:11:37;;;;;;;;;18.25;17.25;;;;;22.47;58.13;100235.56;2102045;28;47109;-62
2022/09/15 03:12:38;;;;;;;;;19.00;18.00;;;;;22.45;58.14;100245.63;2100185;28;47270;-62
2022/09/15 03:13:39;;;;;;;;;15.20;14.80;;;;;22.45;58.11;100248.34;2101352;28;47246;-61
2022/09/15 03:14:39;;;;;;;;;15.00;13.00;;;;;22.40;58.27;100238.88;2103297;27;48083;-60
2022/09/15 03:15:39;;;;;;;;;18.50;16.75;;;;;22.43;58.16;100235.94;2102063;28;47782;-62
2022/09/15 03:16:40;;;;;;;;;19.25;17.25;;;;;22.44;58.05;100237.66;2103733;28;45678;-61
2022/09/15 03:17:42;;;;;;;;;13.00;13.00;;;;;22.43;58.46;100235.94;2099588;28;47633;-61
2022/09/15 03:18:42;;;;;;;;;18.20;16.20;;;;;22.41;58.41;100233.34;2089739;28;47832;-61
2022/09/15 03:19:43;;;;;;;;;15.75;14.50;;;;;22.42;58.11;100234.22;2089424;28;47909;-61
2022/09/15 03:20:44;;;;;;;;;21.40;20.40;;;;;22.41;58.10;100235.19;2099266;28;47267;-62
2022/09/15 03:21:44;;;;;;;;;17.00;16.50;;;;;22.44;58.47;100232.25;2099587;28;47396;-62
2022/09/15 03:22:45;;;;;;;;;18.50;16.25;;;;;22.45;58.47;100234.81;2100254;27;46685;-61
2022/09/15 03:23:45;;;;;;;;;21.25;18.25;;;;;22.47;58.23;100240.97;2099207;28;47257;-61
2022/09/15 03:24:45;;;;;;;;;17.00;15.75;;;;;22.49;57.97;100240.88;2102980;28;49416;-61
2022/09/15 03:25:46;;;;;;;;;17.00;17.00;;;;;22.49;57.88;100230.91;2103812;28;47701;-62
2022/09/15 03:26:47;;;;;;;;;19.00;18.25;;;;;22.49;57.72;100240.88;2102535;28;47498;-61
2022/09/15 03:27:47;;;;;;;;;15.00;15.00;;;;;22.48;57.40;100236.41;2104086;28;47766;-60
2022/09/15 03:28:47;;;;;;;;;17.75;15.50;;;;;22.49;57.32;100240.88;2102916;28;47559;-61
2022/09/15 03:29:48;;;;;;;;;17.75;17.00;;;;;22.47;58.00;100246.38;2104176;28;47850;-60
2022/09/15 03:30:48;;;;;;;;;12.75;12.25;;;;;22.47;57.99;100240.97;2103333;28;47566;-61
2022/09/15 03:31:49;;;;;;;;;12.50;12.00;;;;;22.48;57.80;100244.53;2094737;28;47490;-60
2022/09/15 03:32:49;;;;;;;;;15.25;15.00;;;;;22.47;57.75;100240.97;2091585;28;47869;-62
2022/09/15 03:33:49;;;;;;;;;13.33;13.33;;;;;22.47;57.72;100240.97;2099786;28;47292;-62
2022/09/15 03:34:50;;;;;;;;;15.25;13.75;;;;;22.46;57.25;100241.94;2099161;28;46349;-62
2022/09/15 03:35:51;;;;;;;;;14.25;14.25;;;;;22.47;57.28;100242.81;2103728;28;48009;-61
2022/09/15 03:36:52;;;;;;;;;13.00;13.00;;;;;22.45;57.01;100239.38;2102945;28;46717;-62
2022/09/15 03:37:52;;;;;;;;;15.00;15.00;;;;;22.45;57.45;100247.47;2101819;28;47906;-61
2022/09/15 03:38:55;;;;;;;;;14.50;14.00;;;;;22.43;57.62;100249.44;2100218;28;47556;-61
2022/09/15 03:39:55;;;;;;;;;15.40;15.20;;;;;22.41;57.36;100244.16;2104049;28;47409;-62
2022/09/15 03:40:57;;;;;;;;;14.75;14.75;;;;;22.43;57.46;100246.75;2078778;28;47930;-62
2022/09/15 03:41:58;;;;;;;;;14.00;14.00;;;;;22.42;57.07;100240.47;2078499;28;47564;-61
2022/09/15 03:42:58;;;;;;;;;15.20;14.60;;;;;22.41;57.45;100248.72;2101898;28;47434;-62
2022/09/15 03:43:59;;;;;;;;;14.25;11.75;;;;;22.40;57.32;100241.59;2100354;28;46864;-61
2022/09/15 03:44:59;;;;;;;;;14.75;14.75;;;;;22.40;57.27;100241.59;2102007;27;47940;-62
2022/09/15 03:45:59;;;;;;;;;11.75;11.75;;;;;22.40;57.51;100242.44;2101623;28;47666;-61
2022/09/15 03:47:00;;;;;;;;;14.50;14.00;;;;;22.40;57.16;100236.19;2092836;28;47067;-60
2022/09/15 03:48:01;;;;;;;;;14.80;13.80;;;;;22.39;57.26;100248.84;2087283;28;47704;-61
2022/09/15 03:49:02;;;;;;;;;13.25;11.75;;;;;22.39;57.11;100245.28;2100102;27;47603;-60
2022/09/15 03:50:02;;;;;;;;;11.75;11.75;;;;;22.39;57.22;100247.97;2095723;28;47068;-62
2022/09/15 03:51:04;;;;;;;;;16.00;14.75;;;;;22.39;57.07;100245.28;2089742;28;47288;-61
2022/09/15 03:52:04;;;;;;;;;11.75;11.50;;;;;22.39;57.02;100246.13;2086105;28;47685;-61
2022/09/15 03:53:05;;;;;;;;;11.00;11.00;;;;;22.39;57.06;100243.44;2092212;28;47757;-61
2022/09/15 03:54:07;;;;;;;;;12.00;12.00;;;;;22.39;56.89;100246.13;2101493;28;47502;-61
2022/09/15 03:55:07;;;;;;;;;12.80;12.20;;;;;22.39;56.88;100248.84;2102520;28;47792;-59
2022/09/15 03:56:24;;;;;;;;;13.50;13.50;;;;;22.39;56.76;100242.56;2104328;27;47663;-61
2022/09/15 03:57:24;;;;;;;;;12.00;11.80;;;;;22.38;56.61;100247.13;2101252;28;47736;-62
2022/09/15 03:58:25;;;;;;;;;13.50;11.75;;;;;22.38;56.39;100254.38;2095864;28;48157;-61
2022/09/15 03:59:25;;;;;;;;;15.25;14.50;;;;;22.37;56.49;100255.34;2098268;28;46999;-61
2022/09/15 04:00:26;;;;;;;;;13.25;13.25;;;;;22.35;56.39;100252.75;2097778;27;47860;-62
2022/09/15 04:01:28;;;;;;;;;14.25;13.00;;;;;22.35;56.43;100251.88;2103911;28;45604;-61
2022/09/15 04:02:28;;;;;;;;;13.60;12.40;;;;;22.32;56.45;100248.44;2102997;28;47568;-60
2022/09/15 04:03:30;;;;;;;;;14.25;13.75;;;;;22.31;56.34;100253.97;2102223;28;47618;-61
2022/09/15 04:04:30;;;;;;;;;10.60;10.60;;;;;22.29;56.27;100256.78;2097348;28;48211;-61
2022/09/15 04:05:31;;;;;;;;;13.25;12.00;;;;;22.29;56.21;100256.78;2104162;27;47404;-61
2022/09/15 04:06:32;;;;;;;;;12.00;10.50;;;;;22.29;56.35;100255.94;2100037;27;47842;-61
2022/09/15 04:07:33;;;;;;;;;12.40;11.60;;;;;22.27;56.07;100256.06;2103246;28;47447;-61
2022/09/15 04:08:33;;;;;;;;;12.75;12.75;;;;;22.26;56.09;100257.03;2103099;28;47751;-61
2022/09/15 04:09:36;;;;;;;;;13.00;12.00;;;;;22.25;56.11;100247.22;2091916;28;47253;-62
2022/09/15 04:10:37;;;;;;;;;11.00;10.00;;;;;22.26;55.84;100250.78;2092045;28;47519;-60
2022/09/15 04:11:39;;;;;;;;;13.80;13.80;;;;;22.26;55.88;100257.03;2101812;28;47473;-62
2022/09/15 04:12:40;;;;;;;;;15.60;15.00;;;;;22.27;56.26;100249.78;2087584;28;47451;-61
2022/09/15 04:13:41;;;;;;;;;14.75;12.25;;;;;22.25;56.20;100258.03;2092944;28;46457;-61
2022/09/15 04:14:42;;;;;;;;;12.00;12.00;;;;;22.25;55.82;100254.47;2101435;28;47351;-60
2022/09/15 04:15:43;;;;;;;;;12.50;11.25;;;;;22.24;55.59;100252.75;2103421;28;47333;-60
2022/09/15 04:16:43;;;;;;;;;12.80;12.80;;;;;22.23;55.78;100259.09;2100721;27;47321;-61
2022/09/15 04:17:44;;;;;;;;;13.25;12.75;;;;;22.23;55.94;100259.09;2102375;28;47355;-62
2022/09/15 04:18:45;;;;;;;;;12.67;11.33;;;;;22.23;56.26;100259.09;2101085;28;47425;-61
2022/09/15 04:19:45;;;;;;;;;15.40;14.60;;;;;22.24;56.25;100258.16;2102100;27;47504;-61
2022/09/15 04:20:46;;;;;;;;;15.00;14.50;;;;;22.24;55.63;100260.84;2099695;28;46773;-61
2022/09/15 04:21:47;;;;;;;;;11.50;11.50;;;;;22.23;55.81;100260.00;2102087;28;47717;-61
2022/09/15 04:22:47;;;;;;;;;15.50;15.50;;;;;22.24;55.83;100268.97;2084685;28;48116;-61
2022/09/15 04:23:48;;;;;;;;;12.33;12.33;;;;;22.21;55.41;100263.75;2084733;28;47493;-61
2022/09/15 04:24:49;;;;;;;;;13.00;12.25;;;;;22.19;55.44;100274.69;2091243;28;48036;-61
2022/09/15 04:25:55;;;;;;;;;14.00;12.50;;;;;22.18;55.43;100270.28;2096330;28;47420;-62
2022/09/15 04:26:56;;;;;;;;;12.40;11.00;;;;;22.17;55.65;100273.09;2103294;28;47585;-61
2022/09/15 04:27:56;;;;;;;;;15.00;15.00;;;;;22.16;55.21;100272.25;2105562;28;47377;-63
2022/09/15 04:28:58;;;;;;;;;16.00;14.33;;;;;22.16;55.67;100272.25;2104226;28;47277;-61
2022/09/15 04:29:58;;;;;;;;;14.60;13.80;;;;;22.15;55.77;100273.22;2104580;28;47598;-61
2022/09/15 04:31:07;;;;;;;;;16.00;13.75;;;;;22.15;55.82;100280.47;2103769;28;47592;-61
2022/09/15 04:32:08;;;;;;;;;15.20;13.00;;;;;22.14;55.65;100274.19;2105637;28;47523;-62
2022/09/15 04:33:09;;;;;;;;;12.75;11.25;;;;;22.12;55.41;100270.75;2103877;28;47969;-61
2022/09/15 04:34:09;;;;;;;;;11.75;11.75;;;;;22.12;55.18;100281.56;2105235;28;47639;-60
2022/09/15 04:35:09;;;;;;;;;16.50;14.00;;;;;22.12;55.69;100281.56;2101233;28;47934;-62
2022/09/15 04:36:19;;;;;;;;;12.75;10.75;;;;;22.12;55.25;100273.47;2102818;28;47329;-61
2022/09/15 04:37:19;;;;;;;;;13.20;9.80;;;;;22.13;55.83;100279.72;2092602;28;47166;-62
2022/09/15 04:38:20;;;;;;;;;13.00;12.75;;;;;22.11;55.61;100277.16;2078935;28;47936;-62
2022/09/15 04:39:20;;;;;;;;;11.50;10.00;;;;;22.12;55.19;100278.00;2093772;28;47613;-61
2022/09/15 04:40:20;;;;;;;;;15.25;15.25;;;;;22.11;55.24;100277.16;2104395;28;47649;-60
2022/09/15 04:41:21;;;;;;;;;14.00;13.00;;;;;22.12;55.16;100278.88;2101474;28;48031;-61
2022/09/15 04:42:22;;;;;;;;;13.75;13.75;;;;;22.12;54.98;100280.72;2104678;27;47575;-61
2022/09/15 04:43:24;;;;;;;;;14.60;14.20;;;;;22.09;54.83;100280.91;2104089;28;45553;-61
2022/09/15 04:44:24;;;;;;;;;14.20;13.80;;;;;22.09;55.00;100284.47;2104201;28;47382;-62
2022/09/15 04:45:24;;;;;;;;;15.00;14.25;;;;;22.08;55.29;100280.06;2104130;28;47468;-62
2022/09/15 04:46:25;;;;;;;;;18.00;17.25;;;;;22.08;55.05;100280.06;2103864;27;47772;-61
2022/09/15 04:47:26;;;;;;;;;14.75;13.50;;;;;22.06;55.03;100281.16;2100724;28;46901;-61
2022/09/15 04:48:27;;;;;;;;;15.60;14.80;;;;;22.03;55.15;100288.50;2104066;28;47661;-61
2022/09/15 04:49:27;;;;;;;;;16.40;16.00;;;;;22.00;54.88;100286.03;2096088;28;47739;-59
2022/09/15 04:50:28;;;;;;;;;18.50;17.50;;;;;21.96;55.24;100281.81;2095210;28;48139;-61
2022/09/15 04:51:30;;;;;;;;;14.60;14.20;;;;;21.94;54.74;100286.47;2104329;28;46992;-62
2022/09/15 04:52:30;;;;;;;;;15.50;14.75;;;;;21.92;54.85;100293.00;2102740;28;47351;-62
2022/09/15 04:53:31;;;;;;;;;17.25;17.00;;;;;21.89;55.45;100291.38;2099193;28;48669;-61
2022/09/15 04:54:33;;;;;;;;;17.50;15.50;;;;;21.88;55.21;100289.66;2101829;28;48094;-61